Time;durP1;ratioP1;P1;durP2;ratioP2;P2;SDS_P1;SDS_P2;PMS_P1;PMS_P2;Temp;Humidity;BMP_temperature;BMP_pressure;BME280_temperature;BME280_humidity;BME280_pressure;Samples;Min_cycle;Max_cycle;Signal;HPM_P1;HPM_P2
2023/06/06 00:01:52;;;;;;;0.00;0.00;;;;;;;;;;6198266;23;20024;-79
2023/06/06 00:04:18;;;;;;;0.10;0.10;;;;;;;;;;6197657;23;20031;-80
2023/06/06 00:06:44;;;;;;;0.10;0.10;;;;;;;;;;6198139;23;20087;-77
2023/06/06 00:09:11;;;;;;;0.10;0.10;;;;;;;;;;6171183;23;20016;-81
2023/06/06 00:11:39;;;;;;;0.10;0.10;;;;;;;;;;6197000;23;20020;-81
2023/06/06 00:14:07;;;;;;;0.10;0.10;;;;;;;;;;6175523;23;20477;-80
2023/06/06 00:16:34;;;;;;;0.10;0.10;;;;;;;;;;6199174;23;20048;-80
2023/06/06 00:19:00;;;;;;;0.10;0.10;;;;;;;;;;6199333;23;20391;-80
2023/06/06 00:21:32;;;;;;;0.10;0.10;;;;;;;;;;6200318;23;20044;-80
2023/06/06 00:24:00;;;;;;;0.20;0.20;;;;;;;;;;6199047;23;20017;-80
2023/06/06 00:26:26;;;;;;;0.10;0.10;;;;;;;;;;6200497;23;20107;-80
2023/06/06 00:28:53;;;;;;;0.10;0.10;;;;;;;;;;6199921;23;20024;-80
2023/06/06 00:31:19;;;;;;;0.10;0.10;;;;;;;;;;6197727;23;20039;-81
2023/06/06 00:33:45;;;;;;;0.10;0.10;;;;;;;;;;6198855;23;20805;-80
2023/06/06 00:36:11;;;;;;;0.10;0.10;;;;;;;;;;6199746;23;20100;-81
2023/06/06 00:38:37;;;;;;;0.10;0.10;;;;;;;;;;6201576;23;20020;-80
2023/06/06 00:41:03;;;;;;;0.10;0.10;;;;;;;;;;6199406;23;20083;-80
2023/06/06 00:43:29;;;;;;;0.10;0.10;;;;;;;;;;6199600;23;20032;-80
2023/06/06 00:45:56;;;;;;;0.10;0.10;;;;;;;;;;6199463;23;20051;-80
2023/06/06 00:48:22;;;;;;;0.10;0.10;;;;;;;;;;6199993;23;20094;-80
2023/06/06 00:50:50;;;;;;;0.10;0.10;;;;;;;;;;6200090;23;20498;-81
2023/06/06 00:53:16;;;;;;;0.10;0.10;;;;;;;;;;6199564;23;20123;-80
2023/06/06 00:55:43;;;;;;;0.10;0.10;;;;;;;;;;6201853;23;20012;-80
2023/06/06 00:58:10;;;;;;;0.47;0.47;;;;;;;;;;6200224;23;20102;-80
2023/06/06 01:00:37;;;;;;;0.00;0.00;;;;;;;;;;6200075;23;20031;-81
2023/06/06 01:03:09;;;;;;;0.10;0.10;;;;;;;;;;6200028;23;20344;-80
2023/06/06 01:05:35;;;;;;;0.00;0.00;;;;;;;;;;6201283;23;20016;-80
2023/06/06 01:08:02;;;;;;;0.10;0.10;;;;;;;;;;6201626;23;20058;-80
2023/06/06 01:10:28;;;;;;;0.20;0.20;;;;;;;;;;6199901;23;20021;-80
2023/06/06 01:13:03;;;;;;;0.00;0.00;;;;;;;;;;6201341;23;20322;-80
2023/06/06 01:15:32;;;;;;;0.10;0.10;;;;;;;;;;6199229;23;20025;-80
2023/06/06 01:18:01;;;;;;;4.57;1.45;;;;;;;;;;6199186;23;20021;-80
2023/06/06 01:20:28;;;;;;;0.10;0.10;;;;;;;;;;6198688;23;20193;-80
2023/06/06 01:22:54;;;;;;;0.10;0.10;;;;;;;;;;6199346;23;20177;-80
2023/06/06 01:25:23;;;;;;;0.00;0.00;;;;;;;;;;6198775;23;20539;-81
2023/06/06 01:27:53;;;;;;;0.10;0.10;;;;;;;;;;6199949;23;20031;-80
2023/06/06 01:30:20;;;;;;;0.10;0.10;;;;;;;;;;6199345;23;20027;-80
2023/06/06 01:32:50;;;;;;;0.10;0.10;;;;;;;;;;6199082;23;20013;-80
2023/06/06 01:35:35;;;;;;;0.10;0.10;;;;;;;;;;6174594;23;20026;-80
2023/06/06 01:38:10;;;;;;;0.63;0.63;;;;;;;;;;6174116;23;20295;-80
2023/06/06 01:40:37;;;;;;;0.10;0.10;;;;;;;;;;6201432;23;20512;-81
2023/06/06 01:43:04;;;;;;;0.20;0.20;;;;;;;;;;6199635;23;20024;-80
2023/06/06 01:45:30;;;;;;;0.00;0.00;;;;;;;;;;6201283;23;20044;-80
2023/06/06 01:47:57;;;;;;;0.10;0.10;;;;;;;;;;6201152;23;20091;-80
2023/06/06 01:50:23;;;;;;;1.17;1.10;;;;;;;;;;6201972;23;20132;-80
2023/06/06 01:52:52;;;;;;;0.10;0.10;;;;;;;;;;6201982;23;20024;-81
2023/06/06 01:55:18;;;;;;;0.10;0.10;;;;;;;;;;6201760;23;20017;-80
2023/06/06 01:57:44;;;;;;;0.10;0.10;;;;;;;;;;6202006;23;20483;-80
2023/06/06 02:00:11;;;;;;;0.10;0.10;;;;;;;;;;6202242;23;20031;-81
2023/06/06 02:02:37;;;;;;;0.00;0.00;;;;;;;;;;6199856;23;20092;-81
2023/06/06 02:05:03;;;;;;;0.10;0.10;;;;;;;;;;6199573;23;20059;-81
2023/06/06 02:07:30;;;;;;;0.10;0.10;;;;;;;;;;6198484;23;20028;-80
2023/06/06 02:09:56;;;;;;;0.10;0.10;;;;;;;;;;6198802;23;20028;-80
2023/06/06 02:12:22;;;;;;;0.10;0.10;;;;;;;;;;6197477;23;20031;-80
2023/06/06 02:14:49;;;;;;;0.10;0.10;;;;;;;;;;6200531;23;20075;-80
2023/06/06 02:17:15;;;;;;;0.10;0.10;;;;;;;;;;6199567;23;20017;-80
2023/06/06 02:19:41;;;;;;;0.25;0.25;;;;;;;;;;6200956;23;20048;-80
2023/06/06 02:22:07;;;;;;;0.10;0.10;;;;;;;;;;6198819;23;20020;-80
2023/06/06 02:24:33;;;;;;;0.10;0.10;;;;;;;;;;6198146;23;20024;-81
2023/06/06 02:26:59;;;;;;;0.10;0.10;;;;;;;;;;6198947;23;20196;-81
2023/06/06 02:29:25;;;;;;;0.10;0.10;;;;;;;;;;6198960;23;20051;-80
2023/06/06 02:31:52;;;;;;;0.10;0.10;;;;;;;;;;6173658;23;20032;-80
2023/06/06 02:34:18;;;;;;;0.10;0.10;;;;;;;;;;6199019;23;20020;-81
2023/06/06 02:36:44;;;;;;;0.10;0.10;;;;;;;;;;6198570;23;20025;-81
2023/06/06 02:39:10;;;;;;;0.10;0.10;;;;;;;;;;6199025;23;20554;-80
2023/06/06 02:41:36;;;;;;;0.10;0.10;;;;;;;;;;6198495;23;20020;-80
2023/06/06 02:44:03;;;;;;;0.10;0.10;;;;;;;;;;6173918;23;20019;-80
2023/06/06 02:46:30;;;;;;;0.05;0.05;;;;;;;;;;6229833;23;20462;-81
2023/06/06 02:48:57;;;;;;;0.00;0.00;;;;;;;;;;6204287;23;20046;-80
2023/06/06 02:51:23;;;;;;;0.10;0.10;;;;;;;;;;6204277;23;20835;-81
2023/06/06 02:53:52;;;;;;;0.10;0.10;;;;;;;;;;6205893;23;20027;-80
2023/06/06 02:56:18;;;;;;;0.10;0.10;;;;;;;;;;6204481;23;20016;-81
2023/06/06 02:58:44;;;;;;;0.45;0.45;;;;;;;;;;6232438;23;20032;-80
2023/06/06 03:01:14;;;;;;;0.10;0.10;;;;;;;;;;6205156;23;20024;-80
2023/06/06 03:03:40;;;;;;;0.30;0.30;;;;;;;;;;6205328;23;20074;-80
2023/06/06 03:06:06;;;;;;;0.10;0.10;;;;;;;;;;6231112;23;20064;-80
2023/06/06 03:08:33;;;;;;;0.00;0.00;;;;;;;;;;6204661;23;20024;-80
2023/06/06 03:10:59;;;;;;;0.10;0.10;;;;;;;;;;6231670;23;20099;-80
2023/06/06 03:13:25;;;;;;;0.10;0.10;;;;;;;;;;6205450;23;20031;-81
2023/06/06 03:15:51;;;;;;;0.10;0.10;;;;;;;;;;6205122;23;20377;-80
2023/06/06 03:18:20;;;;;;;0.10;0.10;;;;;;;;;;6203831;23;20463;-80
2023/06/06 03:20:53;;;;;;;0.10;0.10;;;;;;;;;;6204519;23;20027;-80
2023/06/06 03:23:20;;;;;;;0.00;0.00;;;;;;;;;;6204048;23;20050;-80
2023/06/06 03:25:49;;;;;;;0.30;0.30;;;;;;;;;;6178471;23;20293;-81
2023/06/06 03:28:19;;;;;;;0.10;0.10;;;;;;;;;;6230499;23;20027;-81
2023/06/06 03:30:45;;;;;;;0.10;0.10;;;;;;;;;;6203885;23;20020;-80
2023/06/06 03:33:12;;;;;;;0.10;0.10;;;;;;;;;;6203988;23;20454;-80
2023/06/06 03:35:38;;;;;;;0.35;0.35;;;;;;;;;;6203106;23;20065;-80
2023/06/06 03:38:04;;;;;;;0.10;0.10;;;;;;;;;;6203230;23;20012;-80
2023/06/06 03:40:31;;;;;;;0.10;0.10;;;;;;;;;;6203024;23;20020;-80
2023/06/06 03:42:57;;;;;;;0.00;0.00;;;;;;;;;;6203880;23;20419;-80
2023/06/06 03:45:23;;;;;;;0.10;0.10;;;;;;;;;;6178155;23;20095;-80
2023/06/06 03:47:50;;;;;;;0.10;0.10;;;;;;;;;;6204700;23;20015;-80
2023/06/06 03:50:17;;;;;;;0.10;0.10;;;;;;;;;;6205347;23;20024;-80
2023/06/06 03:52:44;;;;;;;0.40;0.40;;;;;;;;;;6205609;23;20026;-80
2023/06/06 03:55:10;;;;;;;0.10;0.10;;;;;;;;;;6205162;23;20358;-81
2023/06/06 03:57:37;;;;;;;0.10;0.10;;;;;;;;;;6204809;23;20471;-80
2023/06/06 04:00:10;;;;;;;0.10;0.10;;;;;;;;;;6204071;23;20056;-80
2023/06/06 04:02:37;;;;;;;0.10;0.10;;;;;;;;;;6205661;23;20012;-80
2023/06/06 04:05:04;;;;;;;0.10;0.10;;;;;;;;;;6205312;23;20343;-80
2023/06/06 04:07:31;;;;;;;0.57;0.57;;;;;;;;;;6205291;23;20395;-80
2023/06/06 04:09:57;;;;;;;0.10;0.10;;;;;;;;;;6204915;23;20091;-80
2023/06/06 04:12:24;;;;;;;0.10;0.10;;;;;;;;;;6231658;23;20038;-81
2023/06/06 04:14:50;;;;;;;0.10;0.10;;;;;;;;;;6205221;23;20448;-80
2023/06/06 04:17:16;;;;;;;0.10;0.10;;;;;;;;;;6204411;23;20302;-80
2023/06/06 04:19:42;;;;;;;0.00;0.00;;;;;;;;;;6204548;23;20020;-80
2023/06/06 04:22:09;;;;;;;0.10;0.10;;;;;;;;;;6205510;23;20024;-80
2023/06/06 04:24:35;;;;;;;0.00;0.00;;;;;;;;;;6232059;23;20020;-80
2023/06/06 04:27:04;;;;;;;0.10;0.10;;;;;;;;;;6205045;23;20062;-80
2023/06/06 04:29:33;;;;;;;0.10;0.10;;;;;;;;;;6179344;23;20027;-81
2023/06/06 04:32:03;;;;;;;0.05;0.05;;;;;;;;;;6204606;23;20082;-80
2023/06/06 04:34:30;;;;;;;0.10;0.10;;;;;;;;;;6204411;23;20838;-80
2023/06/06 04:37:05;;;;;;;0.10;0.10;;;;;;;;;;6205803;23;20035;-81
2023/06/06 04:39:32;;;;;;;0.10;0.10;;;;;;;;;;6204435;23;20503;-80
2023/06/06 04:41:59;;;;;;;0.10;0.10;;;;;;;;;;6232394;23;20063;-80
2023/06/06 04:44:28;;;;;;;0.10;0.10;;;;;;;;;;6204669;23;20023;-79
2023/06/06 04:47:04;;;;;;;0.10;0.10;;;;;;;;;;6197752;23;20021;-81
2023/06/06 04:49:36;;;;;;;0.10;0.10;;;;;;;;;;6199916;23;20418;-80
2023/06/06 04:52:10;;;;;;;0.10;0.10;;;;;;;;;;6199975;23;20024;-80
2023/06/06 04:54:40;;;;;;;0.10;0.10;;;;;;;;;;6200157;23;20021;-80
2023/06/06 04:57:07;;;;;;;0.10;0.10;;;;;;;;;;6175426;23;20012;-80
2023/06/06 04:59:33;;;;;;;0.10;0.10;;;;;;;;;;6200119;23;20095;-80
2023/06/06 05:02:01;;;;;;;0.05;0.05;;;;;;;;;;6199636;23;20028;-80
2023/06/06 05:04:29;;;;;;;0.10;0.10;;;;;;;;;;6200101;23;20117;-80
2023/06/06 05:06:56;;;;;;;0.10;0.10;;;;;;;;;;6174758;23;20021;-80
2023/06/06 05:09:22;;;;;;;0.10;0.10;;;;;;;;;;6199713;23;20028;-80
2023/06/06 05:11:49;;;;;;;0.10;0.10;;;;;;;;;;6199499;23;20032;-80
2023/06/06 05:14:24;;;;;;;3.50;2.33;;;;;;;;;;6200954;23;20021;-80
2023/06/06 05:16:52;;;;;;;0.00;0.00;;;;;;;;;;6199043;23;20025;-80
2023/06/06 05:19:18;;;;;;;0.10;0.10;;;;;;;;;;6199736;23;20086;-81
2023/06/06 05:21:44;;;;;;;0.10;0.10;;;;;;;;;;6198990;23;20444;-80
2023/06/06 05:24:10;;;;;;;0.10;0.10;;;;;;;;;;6199304;23;20028;-81
2023/06/06 05:26:36;;;;;;;0.00;0.00;;;;;;;;;;6198684;23;20016;-80
2023/06/06 05:29:03;;;;;;;0.10;0.10;;;;;;;;;;6201047;23;20027;-80
2023/06/06 05:31:29;;;;;;;0.20;0.20;;;;;;;;;;6199060;23;20585;-79
2023/06/06 05:33:55;;;;;;;0.10;0.10;;;;;;;;;;6198827;23;20385;-79
2023/06/06 05:36:22;;;;;;;0.10;0.10;;;;;;;;;;6199236;23;20055;-79
2023/06/06 05:38:48;;;;;;;0.20;0.20;;;;;;;;;;6198922;23;20017;-79
2023/06/06 05:41:14;;;;;;;0.55;0.55;;;;;;;;;;6198739;23;20412;-81
2023/06/06 05:43:40;;;;;;;0.00;0.00;;;;;;;;;;6173869;23;20063;-80
2023/06/06 05:46:07;;;;;;;1.33;0.55;;;;;;;;;;6218476;23;20020;-82
2023/06/06 05:48:33;;;;;;;0.10;0.10;;;;;;;;;;6204733;23;20506;-81
2023/06/06 05:50:59;;;;;;;86.28;30.70;;;;;;;;;;6202693;23;20408;-80
2023/06/06 05:53:26;;;;;;;;;;;;;;;;;;6204353;23;20027;-80
2023/06/06 05:55:52;;;;;;;;;;;;;;;;;;6231797;23;20327;-81
2023/06/06 05:58:17;;;;;;;;;;;;;;;;;;6205349;23;19961;-80
2023/06/06 06:00:43;;;;;;;;;;;;;;;;;;6231433;23;19923;-80
2023/06/06 06:03:10;;;;;;;;;;;;;;;;;;6232159;23;19920;-80
2023/06/06 06:05:36;;;;;;;;;;;;;;;;;;6231911;23;20166;-85
2023/06/06 06:08:02;;;;;;;;;;;;;;;;;;6232141;23;19977;-84
2023/06/06 06:10:28;;;;;;;;;;;;;;;;;;6231231;23;19915;-83
2023/06/06 06:12:54;;;;;;;;;;;;;;;;;;6204877;23;20339;-83
2023/06/06 06:15:20;;;;;;;;;;;;;;;;;;6232346;23;19916;-82
2023/06/06 06:17:46;;;;;;;;;;;;;;;;;;6232339;23;19915;-84
2023/06/06 06:20:12;;;;;;;;;;;;;;;;;;6204744;23;19920;-84
2023/06/06 06:22:38;;;;;;;;;;;;;;;;;;6205808;23;19922;-84
2023/06/06 06:25:04;;;;;;;;;;;;;;;;;;6205727;23;19990;-84
2023/06/06 06:27:30;;;;;;;;;;;;;;;;;;6205715;23;20258;-84
2023/06/06 06:29:56;;;;;;;;;;;;;;;;;;6205449;23;19919;-84
2023/06/06 06:32:22;;;;;;;;;;;;;;;;;;6205640;23;19915;-83
2023/06/06 06:34:48;;;;;;;;;;;;;;;;;;6179673;23;19915;-84
2023/06/06 06:37:16;;;;;;;;;;;;;;;;;;6205455;23;19962;-83
2023/06/06 06:39:42;;;;;;;;;;;;;;;;;;6205598;23;20357;-83
2023/06/06 06:42:08;;;;;;;;;;;;;;;;;;6206033;23;19934;-83
2023/06/06 06:44:34;;;;;;;;;;;;;;;;;;6205936;23;20228;-83
2023/06/06 06:47:03;;;;;;;;;;;;;;;;;;6231924;23;19927;-83
2023/06/06 06:49:29;;;;;;;;;;;;;;;;;;6232302;23;19996;-84
2023/06/06 06:51:56;;;;;;;;;;;;;;;;;;6205571;23;19962;-84
2023/06/06 06:54:24;;;;;;;;;;;;;;;;;;6205340;23;19946;-84
2023/06/06 06:56:51;;;;;;;;;;;;;;;;;;6205678;23;19926;-83
2023/06/06 06:59:17;;;;;;;;;;;;;;;;;;6205176;23;19969;-83
2023/06/06 07:01:49;;;;;;;;;;;;;;;;;;6204934;23;19919;-82
2023/06/06 07:04:16;;;;;;;;;;;;;;;;;;6205067;23;20032;-84
2023/06/06 07:06:42;;;;;;;;;;;;;;;;;;6180167;23;19922;-83
2023/06/06 07:09:08;;;;;;;;;;;;;;;;;;6204757;23;19915;-83
2023/06/06 07:11:34;;;;;;;;;;;;;;;;;;6204974;23;19945;-83
2023/06/06 07:14:00;;;;;;;;;;;;;;;;;;6219001;23;20352;-83
2023/06/06 07:16:26;;;;;;;;;;;;;;;;;;6232339;23;19915;-83
2023/06/06 07:18:52;;;;;;;;;;;;;;;;;;6232020;23;19919;-83
2023/06/06 07:21:19;;;;;;;;;;;;;;;;;;6205416;23;19919;-83
2023/06/06 07:23:47;;;;;;;;;;;;;;;;;;6233803;23;19919;-83
2023/06/06 07:26:13;;;;;;;;;;;;;;;;;;6207020;23;19916;-84
2023/06/06 07:28:40;;;;;;;;;;;;;;;;;;6234412;23;20268;-83
2023/06/06 07:31:06;;;;;;;;;;;;;;;;;;6206179;23;19915;-85
2023/06/06 07:33:31;;;;;;;;;;;;;;;;;;6205237;23;19922;-81
2023/06/06 07:35:58;;;;;;;;;;;;;;;;;;6233885;23;20355;-83
2023/06/06 07:38:25;;;;;;;;;;;;;;;;;;6204471;23;19915;-82
2023/06/06 07:40:50;;;;;;;;;;;;;;;;;;6206976;23;20278;-82
2023/06/06 07:43:16;;;;;;;;;;;;;;;;;;6234168;23;19919;-81
2023/06/06 07:45:42;;;;;;;;;;;;;;;;;;6233707;23;20549;-82
2023/06/06 07:48:08;;;;;;;;;;;;;;;;;;6233504;23;20317;-82
2023/06/06 07:50:35;;;;;;;;;;;;;;;;;;6235397;23;19922;-82
2023/06/06 07:53:01;;;;;;;;;;;;;;;;;;6237199;23;19973;-82
2023/06/06 07:55:28;;;;;;;;;;;;;;;;;;6210302;23;19922;-82
2023/06/06 07:57:56;;;;;;;;;;;;;;;;;;6235518;23;20298;-82
2023/06/06 08:00:23;;;;;;;;;;;;;;;;;;6209388;23;20341;-82
2023/06/06 08:02:49;;;;;;;;;;;;;;;;;;6209824;23;19962;-83
2023/06/06 08:05:17;;;;;;;;;;;;;;;;;;6208314;23;19965;-82
2023/06/06 08:07:43;;;;;;;;;;;;;;;;;;6210030;23;19941;-82
2023/06/06 08:10:09;;;;;;;;;;;;;;;;;;6207920;23;20018;-82
2023/06/06 08:12:35;;;;;;;;;;;;;;;;;;6206901;23;19915;-82
2023/06/06 08:15:01;;;;;;;;;;;;;;;;;;6205893;23;19915;-81
2023/06/06 08:17:27;;;;;;;;;;;;;;;;;;6206459;23;19978;-82
2023/06/06 08:19:53;;;;;;;;;;;;;;;;;;6205887;23;19960;-81
2023/06/06 08:22:18;;;;;;;;;;;;;;;;;;6233224;23;19919;-81
2023/06/06 08:24:44;;;;;;;;;;;;;;;;;;6206979;23;19919;-82
2023/06/06 08:27:10;;;;;;;;;;;;;;;;;;6233136;23;19922;-82
2023/06/06 08:29:36;;;;;;;;;;;;;;;;;;6233064;23;20235;-82
2023/06/06 08:32:04;;;;;;;;;;;;;;;;;;6206719;23;20245;-82
2023/06/06 08:34:30;;;;;;;;;;;;;;;;;;6206851;23;19919;-82
2023/06/06 08:36:56;;;;;;;;;;;;;;;;;;6207200;23;19911;-83
2023/06/06 08:39:22;;;;;;;;;;;;;;;;;;6206768;23;20425;-82
2023/06/06 08:41:48;;;;;;;;;;;;;;;;;;6182098;23;19919;-83
2023/06/06 08:44:14;;;;;;;;;;;;;;;;;;6234356;23;20285;-82
2023/06/06 08:46:40;;;;;;;;;;;;;;;;;;6207364;23;20576;-82
2023/06/06 08:49:06;;;;;;;;;;;;;;;;;;6232891;23;19969;-82
2023/06/06 08:51:32;;;;;;;;;;;;;;;;;;6207559;23;19938;-82
2023/06/06 08:53:58;;;;;;;;;;;;;;;;;;6206913;23;19923;-82
2023/06/06 08:56:24;;;;;;;;;;;;;;;;;;6206258;23;19920;-82
2023/06/06 08:58:51;;;;;;;;;;;;;;;;;;6233320;23;19915;-81
2023/06/06 09:01:17;;;;;;;;;;;;;;;;;;6206527;23;19915;-82
2023/06/06 09:03:43;;;;;;;;;;;;;;;;;;6182073;23;19919;-82
2023/06/06 09:06:09;;;;;;;;;;;;;;;;;;6233227;23;19970;-83
2023/06/06 09:08:35;;;;;;;;;;;;;;;;;;6206560;23;20327;-83
2023/06/06 09:11:01;;;;;;;;;;;;;;;;;;6205656;23;20318;-83
2023/06/06 09:13:27;;;;;;;;;;;;;;;;;;6207419;23;19919;-82
2023/06/06 09:15:53;;;;;;;;;;;;;;;;;;6205901;23;19977;-82
2023/06/06 09:18:19;;;;;;;;;;;;;;;;;;6206090;23;19943;-81
2023/06/06 09:20:45;;;;;;;;;;;;;;;;;;6206612;23;19916;-82
2023/06/06 09:23:11;;;;;;;;;;;;;;;;;;6206631;23;19982;-82
2023/06/06 09:25:37;;;;;;;;;;;;;;;;;;6232912;23;19922;-83
2023/06/06 09:28:03;;;;;;;;;;;;;;;;;;6206138;23;20052;-83
2023/06/06 09:30:29;;;;;;;;;;;;;;;;;;6206747;23;20042;-83
2023/06/06 09:32:57;;;;;;;;;;;;;;;;;;6207284;23;20227;-83
2023/06/06 09:35:22;;;;;;;;;;;;;;;;;;6207304;23;19950;-83
2023/06/06 09:37:48;;;;;;;;;;;;;;;;;;6206618;23;19997;-83
2023/06/06 09:40:14;;;;;;;;;;;;;;;;;;6232167;23;19916;-82
2023/06/06 09:42:41;;;;;;;;;;;;;;;;;;6206235;23;19963;-83
2023/06/06 09:45:07;;;;;;;;;;;;;;;;;;6206235;23;19919;-83
2023/06/06 09:47:33;;;;;;;;;;;;;;;;;;6181582;23;19919;-84
2023/06/06 09:49:59;;;;;;;;;;;;;;;;;;6206971;23;19919;-84
2023/06/06 09:52:25;;;;;;;;;;;;;;;;;;6207370;23;19970;-81
2023/06/06 09:54:51;;;;;;;;;;;;;;;;;;6206298;23;20388;-82
2023/06/06 09:57:17;;;;;;;;;;;;;;;;;;6206275;23;19916;-82
2023/06/06 11:11:26;;;;;;;;;;;;;;;;;;6176363;22;1275573;-85
2023/06/06 11:13:53;;;;;;;;;;;;;;;;;;6207804;23;19950;-81
2023/06/06 11:16:19;;;;;;;;;;;;;;;;;;6208042;23;19920;-81
2023/06/06 11:18:45;;;;;;;;;;;;;;;;;;6207878;23;19920;-80
2023/06/06 11:21:11;;;;;;;;;;;;;;;;;;6207132;23;20045;-79
2023/06/06 11:23:36;;;;;;;;;;;;;;;;;;6207628;23;19915;-81
2023/06/06 11:26:02;;;;;;;;;;;;;;;;;;6207575;23;20066;-80
2023/06/06 11:28:29;;;;;;;;;;;;;;;;;;6209073;23;20054;-84
2023/06/06 11:30:56;;;;;;;;;;;;;;;;;;6200773;23;19915;-84
2023/06/06 11:33:22;;;;;;;;;;;;;;;;;;6200966;23;20290;-83
2023/06/06 11:35:48;;;;;;;;;;;;;;;;;;6199844;23;19919;-84
2023/06/06 11:38:14;;;;;;;;;;;;;;;;;;6202219;23;20018;-80
2023/06/06 11:40:40;;;;;;;;;;;;;;;;;;6202875;23;20363;-80
2023/06/06 11:43:06;;;;;;;;;;;;;;;;;;6200197;23;19920;-80
2023/06/06 11:45:32;;;;;;;;;;;;;;;;;;6201066;23;19970;-82
2023/06/06 11:47:58;;;;;;;;;;;;;;;;;;6202660;23;19947;-80
2023/06/06 11:50:24;;;;;;;;;;;;;;;;;;6200568;23;20378;-80
2023/06/06 11:52:51;;;;;;;;;;;;;;;;;;6201989;23;19924;-80
2023/06/06 11:55:17;;;;;;;;;;;;;;;;;;6200578;23;19978;-79
2023/06/06 11:57:43;;;;;;;;;;;;;;;;;;6200260;23;19930;-79
2023/06/06 12:00:27;;;;;;;;;;;;;;;;;;6202079;23;19920;-80
2023/06/06 12:02:53;;;;;;;;;;;;;;;;;;6200221;23;19978;-80
2023/06/06 12:05:20;;;;;;;;;;;;;;;;;;6200458;23;20315;-81
2023/06/06 12:07:46;;;;;;;;;;;;;;;;;;6200871;23;19951;-80
2023/06/06 12:10:12;;;;;;;;;;;;;;;;;;6200208;23;19920;-79
2023/06/06 12:12:38;;;;;;;;;;;;;;;;;;6200878;23;20006;-79
2023/06/06 12:15:04;;;;;;;;;;;;;;;;;;6202161;23;20356;-79
2023/06/06 12:17:30;;;;;;;;;;;;;;;;;;6150589;23;19919;-78
2023/06/06 12:19:56;;;;;;;;;;;;;;;;;;6175335;23;20328;-78
2023/06/06 12:22:22;;;;;;;;;;;;;;;;;;6175457;23;20303;-78
2023/06/06 12:24:48;;;;;;;;;;;;;;;;;;6174642;23;19922;-78
2023/06/06 12:27:16;;;;;;;;;;;;;;;;;;6174902;23;19950;-80
2023/06/06 12:29:43;;;;;;;;;;;;;;;;;;6175446;23;20663;-79
2023/06/06 12:32:09;;;;;;;;;;;;;;;;;;6174915;23;19964;-78
2023/06/06 12:34:38;;;;;;;;;;;;;;;;;;6175617;23;19939;-79
2023/06/06 12:37:04;;;;;;;;;;;;;;;;;;6175277;23;19930;-79
2023/06/06 12:39:30;;;;;;;;;;;;;;;;;;6174860;23;19919;-79
2023/06/06 12:41:56;;;;;;;;;;;;;;;;;;6175648;23;20221;-79
2023/06/06 12:44:22;;;;;;;;;;;;;;;;;;6175377;23;19950;-79
2023/06/06 12:46:48;;;;;;;;;;;;;;;;;;6202005;23;19951;-79
2023/06/06 12:49:14;;;;;;;;;;;;;;;;;;6175136;23;20236;-78
2023/06/06 12:51:40;;;;;;;;;;;;;;;;;;6174975;23;19916;-79
2023/06/06 12:54:06;;;;;;;;;;;;;;;;;;6174642;23;20400;-78
2023/06/06 12:56:32;;;;;;;;;;;;;;;;;;6175388;23;19982;-78
2023/06/06 12:58:58;;;;;;;;;;;;;;;;;;6174966;23;20001;-79
2023/06/06 13:01:24;;;;;;;;;;;;;;;;;;6174336;23;19951;-78
2023/06/06 13:03:51;;;;;;;;;;;;;;;;;;6174128;23;20394;-78
2023/06/06 13:06:17;;;;;;;;;;;;;;;;;;6174002;23;19986;-76
2023/06/06 13:08:43;;;;;;;;;;;;;;;;;;6174895;23;19923;-78
2023/06/06 13:11:10;;;;;;;;;;;;;;;;;;6183384;23;20348;-77
2023/06/06 13:13:36;;;;;;;;;;;;;;;;;;6199166;23;19990;-77
2023/06/06 13:16:02;;;;;;;;;;;;;;;;;;6200023;23;19992;-78
2023/06/06 13:18:27;;;;;;;;;;;;;;;;;;6198639;23;19920;-79
2023/06/06 13:20:56;;;;;;;;;;;;;;;;;;6199843;23;20187;-77
2023/06/06 13:23:22;;;;;;;;;;;;;;;;;;6199551;23;20490;-79
2023/06/06 13:25:49;;;;;;;;;;;;;;;;;;6174587;23;19994;-78
2023/06/06 13:28:15;;;;;;;;;;;;;;;;;;6198691;23;20414;-77
2023/06/06 13:30:41;;;;;;;;;;;;;;;;;;6200377;23;19991;-81
2023/06/06 13:33:07;;;;;;;;;;;;;;;;;;6199450;23;19916;-78
2023/06/06 13:35:33;;;;;;;;;;;;;;;;;;6199926;23;20411;-82
2023/06/06 13:37:59;;;;;;;;;;;;;;;;;;6204293;23;20254;-89
2023/06/06 13:40:25;;;;;;;;;;;;;;;;;;6201566;23;19915;-82
2023/06/06 13:42:51;;;;;;;;;;;;;;;;;;6201160;23;19916;-82
2023/06/06 13:45:17;;;;;;;;;;;;;;;;;;6200476;23;20049;-82
2023/06/06 13:47:43;;;;;;;;;;;;;;;;;;6201382;23;19923;-82
2023/06/06 13:50:10;;;;;;;;;;;;;;;;;;6199168;23;19970;-83
2023/06/06 13:52:37;;;;;;;;;;;;;;;;;;6201355;23;19915;-83
2023/06/06 13:55:05;;;;;;;;;;;;;;;;;;6201912;23;19920;-83
2023/06/06 13:57:31;;;;;;;;;;;;;;;;;;6199967;23;19927;-82
2023/06/06 13:59:57;;;;;;;;;;;;;;;;;;6200552;23;19915;-82
2023/06/06 14:02:23;;;;;;;;;;;;;;;;;;6203081;23;19920;-82
2023/06/06 14:04:50;;;;;;;;;;;;;;;;;;6201522;23;19922;-83
2023/06/06 14:07:16;;;;;;;;;;;;;;;;;;6201868;23;19920;-80
2023/06/06 14:09:43;;;;;;;;;;;;;;;;;;6175820;23;19920;-82
2023/06/06 14:12:09;;;;;;;;;;;;;;;;;;6198747;23;19931;-82
2023/06/06 14:14:35;;;;;;;;;;;;;;;;;;6199593;23;19916;-82
2023/06/06 14:17:01;;;;;;;;;;;;;;;;;;6201584;23;19942;-83
2023/06/06 14:19:37;;;;;;;;;;;;;;;;;;6199827;23;20371;-83
2023/06/06 14:22:20;;;;;;;;;;;;;;;;;;6200609;23;19924;-82
2023/06/06 14:24:46;;;;;;;;;;;;;;;;;;6200359;23;19915;-83
2023/06/06 14:27:12;;;;;;;;;;;;;;;;;;6201844;23;20313;-82
2023/06/06 14:29:38;;;;;;;;;;;;;;;;;;6200933;23;19931;-83
2023/06/06 14:32:10;;;;;;;;;;;;;;;;;;6201242;23;19950;-82
2023/06/06 14:34:36;;;;;;;;;;;;;;;;;;6175662;23;19920;-83
2023/06/06 14:37:02;;;;;;;;;;;;;;;;;;6176203;23;19942;-83
2023/06/06 14:39:28;;;;;;;;;;;;;;;;;;6198619;23;19950;-82
2023/06/06 14:41:54;;;;;;;;;;;;;;;;;;6200251;23;19927;-81
2023/06/06 14:44:20;;;;;;;;;;;;;;;;;;6198868;23;19922;-82
2023/06/06 14:46:46;;;;;;;;;;;;;;;;;;6199595;23;20198;-83
2023/06/06 14:49:12;;;;;;;;;;;;;;;;;;6199932;23;20583;-81
2023/06/06 14:51:38;;;;;;;;;;;;;;;;;;6195920;23;19938;-83
2023/06/06 14:54:04;;;;;;;;;;;;;;;;;;6198205;23;19982;-84
2023/06/06 14:56:30;;;;;;;;;;;;;;;;;;6172862;23;19931;-83
2023/06/06 14:58:56;;;;;;;;;;;;;;;;;;6197439;23;19942;-83
2023/06/06 15:01:22;;;;;;;;;;;;;;;;;;6197875;23;20402;-81
2023/06/06 15:03:51;;;;;;;;;;;;;;;;;;6198520;23;19916;-83
2023/06/06 15:06:17;;;;;;;;;;;;;;;;;;6200353;23;19999;-84
2023/06/06 15:08:43;;;;;;;;;;;;;;;;;;6200687;23;20034;-85
2023/06/06 15:11:09;;;;;;;;;;;;;;;;;;6200007;23;19919;-84
2023/06/06 15:13:35;;;;;;;;;;;;;;;;;;6200670;23;19923;-84
2023/06/06 15:16:07;;;;;;;;;;;;;;;;;;6199850;23;20354;-84
2023/06/06 15:18:33;;;;;;;;;;;;;;;;;;6200475;23;19924;-82
2023/06/06 15:20:59;;;;;;;;;;;;;;;;;;6174841;23;20367;-83
2023/06/06 15:23:25;;;;;;;;;;;;;;;;;;6202559;23;19926;-82
2023/06/06 15:25:51;;;;;;;;;;;;;;;;;;6202021;23;19916;-85
2023/06/06 15:28:17;;;;;;;;;;;;;;;;;;6201795;23;20343;-82
2023/06/06 15:30:44;;;;;;;;;;;;;;;;;;6175257;23;19919;-83
2023/06/06 15:33:09;;;;;;;;;;;;;;;;;;6200073;23;20335;-83
2023/06/06 15:35:35;;;;;;;;;;;;;;;;;;6199877;23;19920;-84
2023/06/06 15:38:01;;;;;;;;;;;;;;;;;;6200239;23;20146;-85
2023/06/06 15:40:27;;;;;;;;;;;;;;;;;;6201276;23;20461;-82
2023/06/06 15:42:53;;;;;;;;;;;;;;;;;;6200640;23;20612;-84
2023/06/06 15:45:19;;;;;;;;;;;;;;;;;;6200379;23;20303;-83
2023/06/06 15:47:45;;;;;;;;;;;;;;;;;;6200340;23;19943;-83
2023/06/06 15:50:11;;;;;;;;;;;;;;;;;;6199992;23;19969;-84
2023/06/06 15:52:37;;;;;;;;;;;;;;;;;;6200081;23;19922;-84
2023/06/06 15:55:03;;;;;;;;;;;;;;;;;;6199911;23;19919;-84
2023/06/06 15:57:29;;;;;;;;;;;;;;;;;;6200333;23;20387;-85
2023/06/06 15:59:55;;;;;;;;;;;;;;;;;;6199813;23;20339;-81
2023/06/06 16:02:21;;;;;;;;;;;;;;;;;;6199844;23;20165;-81
2023/06/06 16:04:47;;;;;;;;;;;;;;;;;;6198423;23;19916;-81
2023/06/06 16:07:13;;;;;;;;;;;;;;;;;;6199618;23;19974;-82
2023/06/06 16:09:39;;;;;;;;;;;;;;;;;;6200275;23;19931;-81
2023/06/06 16:12:05;;;;;;;;;;;;;;;;;;6200798;23;19923;-81
2023/06/06 16:14:31;;;;;;;;;;;;;;;;;;6174117;23;19915;-80
2023/06/06 16:16:57;;;;;;;;;;;;;;;;;;6174275;23;20003;-82
2023/06/06 16:19:23;;;;;;;;;;;;;;;;;;6200129;23;19924;-81
2023/06/06 16:21:49;;;;;;;;;;;;;;;;;;6174462;23;20012;-80
2023/06/06 16:24:16;;;;;;;;;;;;;;;;;;6201227;23;19955;-79
2023/06/06 16:26:42;;;;;;;;;;;;;;;;;;6200599;23;19915;-83
2023/06/06 16:29:08;;;;;;;;;;;;;;;;;;6173975;23;19923;-81
2023/06/06 16:31:34;;;;;;;;;;;;;;;;;;6173376;23;19924;-81
2023/06/06 16:34:00;;;;;;;;;;;;;;;;;;6200267;23;19943;-81
2023/06/06 16:36:26;;;;;;;;;;;;;;;;;;6173941;23;20549;-82
2023/06/06 16:38:52;;;;;;;;;;;;;;;;;;6172086;23;19998;-81
2023/06/06 16:41:20;;;;;;;;;;;;;;;;;;6173736;23;20363;-81
2023/06/06 16:43:46;;;;;;;;;;;;;;;;;;6172905;23;20310;-81
2023/06/06 16:46:12;;;;;;;;;;;;;;;;;;6172110;23;19924;-82
2023/06/06 16:48:38;;;;;;;;;;;;;;;;;;6172578;23;19962;-82
2023/06/06 16:51:04;;;;;;;;;;;;;;;;;;6173446;23;19915;-81
2023/06/06 16:53:30;;;;;;;;;;;;;;;;;;6200373;23;20001;-82
2023/06/06 16:55:56;;;;;;;;;;;;;;;;;;6200980;23;19922;-82
2023/06/06 16:58:22;;;;;;;;;;;;;;;;;;6173846;23;19994;-82
2023/06/06 17:00:48;;;;;;;;;;;;;;;;;;6173566;23;20232;-82
2023/06/06 17:03:14;;;;;;;;;;;;;;;;;;6173276;23;19920;-80
2023/06/06 17:05:40;;;;;;;;;;;;;;;;;;6173805;23;20294;-81